CES3 weather

Edmonton / St. Albert (Delta Helicopters) Heliport
Edmonton, Alberta, Canada

Public forecast

Using degrees Celsius for public forecast. Weather courtesy of forecast.io.

Closest aviation weather report (METAR) to Edmonton / St. Albert (Delta Helicopters) Heliport

Closest report is Edmonton / Villeneuve Airport, 6.0 nm (11.2 km) W. Retrieved 2020/06/07 03:41 UTC (16 minutes ago):

CZVL 070341Z AUTO 07005KT 2 1/4SM BR OVC008 12/11 A2961 RMK SLP039 DENSITY ALT 2700FT

Closest aviation forecast (TAF) to Edmonton / St. Albert (Delta Helicopters) Heliport

Closest forecast is Edmonton / Villeneuve Airport, 6.0 nm (11.2 km) W. Retrieved 2020-06-07 00:00 UTC (4 hours ago):

TAF CZVL 062340Z 0700/0712 08008KT P6SM SCT008 OVC012 TEMPO 0700/0702 P6SM -RA OVC008 FM070200 08008KT 6SM -RA SCT004 OVC008 TEMPO 0702/0707 3SM -RA BR OVC004 BECMG 0705/0707 02010G20KT FM070700 02010G20KT 2SM -RA BR OVC004 TEMPO 0707/0712 5SM -RA BR OVC008 RMK FCST BASED ON AUTO OBS NXT FCST BY 070600Z